sensor_id;sensor_type;location;lat;lon;timestamp;temperature;humidity
18898;DHT22;9581;49.484;8.556;2022-10-16T00:01:41;16.60;99.90
18898;DHT22;9581;49.484;8.556;2022-10-16T00:04:09;16.60;99.90
18898;DHT22;9581;49.484;8.556;2022-10-16T00:06:36;16.60;99.90
18898;DHT22;9581;49.484;8.556;2022-10-16T00:09:03;16.60;99.90
18898;DHT22;9581;49.484;8.556;2022-10-16T00:11:33;16.70;99.90
18898;DHT22;9581;49.484;8.556;2022-10-16T00:14:03;16.70;99.90
18898;DHT22;9581;49.484;8.556;2022-10-16T00:16:31;16.50;99.90
18898;DHT22;9581;49.484;8.556;2022-10-16T00:18:58;16.50;99.90
18898;DHT22;9581;49.484;8.556;2022-10-16T00:21:27;16.60;99.90
18898;DHT22;9581;49.484;8.556;2022-10-16T00:23:55;16.50;99.90
18898;DHT22;9581;49.484;8.556;2022-10-16T00:26:22;16.50;99.90
18898;DHT22;9581;49.484;8.556;2022-10-16T00:28:51;16.50;99.90
18898;DHT22;9581;49.484;8.556;2022-10-16T00:31:19;16.40;99.90
18898;DHT22;9581;49.484;8.556;2022-10-16T00:33:46;16.40;99.90
18898;DHT22;9581;49.484;8.556;2022-10-16T00:36:15;16.40;99.90
18898;DHT22;9581;49.484;8.556;2022-10-16T00:38:42;16.40;99.90
18898;DHT22;9581;49.484;8.556;2022-10-16T00:41:11;16.30;99.90
18898;DHT22;9581;49.484;8.556;2022-10-16T00:43:40;16.20;99.90
18898;DHT22;9581;49.484;8.556;2022-10-16T00:46:15;16.30;99.90
18898;DHT22;9581;49.484;8.556;2022-10-16T00:48:44;16.20;99.90
18898;DHT22;9581;49.484;8.556;2022-10-16T00:51:12;16.30;99.90
18898;DHT22;9581;49.484;8.556;2022-10-16T00:53:38;16.40;99.90
18898;DHT22;9581;49.484;8.556;2022-10-16T00:56:06;16.40;99.90
18898;DHT22;9581;49.484;8.556;2022-10-16T00:58:33;16.50;99.90
18898;DHT22;9581;49.484;8.556;2022-10-16T01:01:01;16.50;99.90
18898;DHT22;9581;49.484;8.556;2022-10-16T01:03:31;16.50;99.90
18898;DHT22;9581;49.484;8.556;2022-10-16T01:06:19;16.60;99.90
18898;DHT22;9581;49.484;8.556;2022-10-16T01:08:57;16.60;99.90
18898;DHT22;9581;49.484;8.556;2022-10-16T01:11:30;16.60;99.90
18898;DHT22;9581;49.484;8.556;2022-10-16T01:14:05;16.60;99.90
18898;DHT22;9581;49.484;8.556;2022-10-16T01:16:38;16.60;99.90
18898;DHT22;9581;49.484;8.556;2022-10-16T01:19:09;16.60;99.90
18898;DHT22;9581;49.484;8.556;2022-10-16T01:21:42;16.60;99.90
18898;DHT22;9581;49.484;8.556;2022-10-16T01:24:17;16.60;99.90
18898;DHT22;9581;49.484;8.556;2022-10-16T01:27:10;16.60;99.90
18898;DHT22;9581;49.484;8.556;2022-10-16T01:29:42;16.50;99.90
18898;DHT22;9581;49.484;8.556;2022-10-16T01:32:16;16.60;99.90
18898;DHT22;9581;49.484;8.556;2022-10-16T01:34:49;16.60;99.90
18898;DHT22;9581;49.484;8.556;2022-10-16T01:37:26;16.60;99.90
18898;DHT22;9581;49.484;8.556;2022-10-16T01:39:58;16.60;99.90
18898;DHT22;9581;49.484;8.556;2022-10-16T01:42:31;16.60;99.90
18898;DHT22;9581;49.484;8.556;2022-10-16T01:45:01;16.60;99.90
18898;DHT22;9581;49.484;8.556;2022-10-16T01:47:30;16.70;99.90
18898;DHT22;9581;49.484;8.556;2022-10-16T01:49:58;16.70;99.90
18898;DHT22;9581;49.484;8.556;2022-10-16T01:52:27;16.70;99.90
18898;DHT22;9581;49.484;8.556;2022-10-16T01:54:56;16.70;99.90
18898;DHT22;9581;49.484;8.556;2022-10-16T01:57:24;16.70;99.90
18898;DHT22;9581;49.484;8.556;2022-10-16T01:59:58;16.70;99.90
18898;DHT22;9581;49.484;8.556;2022-10-16T02:02:28;16.70;99.90
18898;DHT22;9581;49.484;8.556;2022-10-16T02:05:01;16.70;99.90
18898;DHT22;9581;49.484;8.556;2022-10-16T02:07:30;16.70;99.90
18898;DHT22;9581;49.484;8.556;2022-10-16T02:09:57;16.70;99.90
18898;DHT22;9581;49.484;8.556;2022-10-16T02:12:28;16.70;99.90
18898;DHT22;9581;49.484;8.556;2022-10-16T02:14:57;16.70;99.90
18898;DHT22;9581;49.484;8.556;2022-10-16T02:17:24;16.70;99.90
18898;DHT22;9581;49.484;8.556;2022-10-16T02:19:53;16.70;99.90
18898;DHT22;9581;49.484;8.556;2022-10-16T02:22:25;16.60;99.90
18898;DHT22;9581;49.484;8.556;2022-10-16T02:24:56;16.60;99.90
18898;DHT22;9581;49.484;8.556;2022-10-16T02:27:26;16.60;99.90
18898;DHT22;9581;49.484;8.556;2022-10-16T02:29:58;16.60;99.90
18898;DHT22;9581;49.484;8.556;2022-10-16T02:32:30;16.60;99.90
18898;DHT22;9581;49.484;8.556;2022-10-16T02:34:58;16.60;99.90
18898;DHT22;9581;49.484;8.556;2022-10-16T02:37:26;16.60;99.90
18898;DHT22;9581;49.484;8.556;2022-10-16T02:39:54;16.60;99.90
18898;DHT22;9581;49.484;8.556;2022-10-16T02:42:28;16.50;99.90
18898;DHT22;9581;49.484;8.556;2022-10-16T02:44:55;16.50;99.90
18898;DHT22;9581;49.484;8.556;2022-10-16T02:47:23;16.60;99.90
18898;DHT22;9581;49.484;8.556;2022-10-16T02:49:49;16.60;99.90
18898;DHT22;9581;49.484;8.556;2022-10-16T02:52:16;16.50;99.90
18898;DHT22;9581;49.484;8.556;2022-10-16T02:54:43;16.50;99.90
18898;DHT22;9581;49.484;8.556;2022-10-16T02:57:10;16.50;99.90
18898;DHT22;9581;49.484;8.556;2022-10-16T02:59:37;16.50;99.90
18898;DHT22;9581;49.484;8.556;2022-10-16T03:02:03;16.60;99.90
18898;DHT22;9581;49.484;8.556;2022-10-16T03:04:31;16.60;99.90
18898;DHT22;9581;49.484;8.556;2022-10-16T03:06:58;16.60;99.90
18898;DHT22;9581;49.484;8.556;2022-10-16T03:09:25;16.60;99.90
18898;DHT22;9581;49.484;8.556;2022-10-16T03:11:52;16.60;99.90
18898;DHT22;9581;49.484;8.556;2022-10-16T03:14:18;16.60;99.90
18898;DHT22;9581;49.484;8.556;2022-10-16T03:16:45;16.60;99.90
18898;DHT22;9581;49.484;8.556;2022-10-16T03:19:12;16.60;99.90
18898;DHT22;9581;49.484;8.556;2022-10-16T03:21:40;16.60;99.90
18898;DHT22;9581;49.484;8.556;2022-10-16T03:24:07;16.60;99.90
18898;DHT22;9581;49.484;8.556;2022-10-16T03:26:34;16.60;99.90
18898;DHT22;9581;49.484;8.556;2022-10-16T03:29:00;16.50;99.90
18898;DHT22;9581;49.484;8.556;2022-10-16T03:31:29;16.50;99.90
18898;DHT22;9581;49.484;8.556;2022-10-16T03:33:55;16.50;99.90
18898;DHT22;9581;49.484;8.556;2022-10-16T03:36:22;16.50;99.90
18898;DHT22;9581;49.484;8.556;2022-10-16T03:38:50;16.60;99.90
18898;DHT22;9581;49.484;8.556;2022-10-16T03:41:17;16.60;99.90
18898;DHT22;9581;49.484;8.556;2022-10-16T03:43:44;16.60;99.90
18898;DHT22;9581;49.484;8.556;2022-10-16T03:46:11;16.60;99.90
18898;DHT22;9581;49.484;8.556;2022-10-16T03:48:38;16.60;99.90
18898;DHT22;9581;49.484;8.556;2022-10-16T03:51:05;16.60;99.90
18898;DHT22;9581;49.484;8.556;2022-10-16T03:53:32;16.60;99.90
18898;DHT22;9581;49.484;8.556;2022-10-16T03:56:00;16.60;99.90
18898;DHT22;9581;49.484;8.556;2022-10-16T03:58:27;16.60;99.90
18898;DHT22;9581;49.484;8.556;2022-10-16T04:00:53;16.60;99.90
18898;DHT22;9581;49.484;8.556;2022-10-16T04:03:20;16.60;99.90
18898;DHT22;9581;49.484;8.556;2022-10-16T04:05:48;16.60;99.90
18898;DHT22;9581;49.484;8.556;2022-10-16T04:08:15;16.60;99.90
18898;DHT22;9581;49.484;8.556;2022-10-16T04:10:42;16.60;99.90
18898;DHT22;9581;49.484;8.556;2022-10-16T04:13:11;16.60;99.90
18898;DHT22;9581;49.484;8.556;2022-10-16T04:15:38;16.70;99.90
18898;DHT22;9581;49.484;8.556;2022-10-16T04:18:05;16.60;99.90
18898;DHT22;9581;49.484;8.556;2022-10-16T04:20:32;16.60;99.90
18898;DHT22;9581;49.484;8.556;2022-10-16T04:22:59;16.60;99.90
18898;DHT22;9581;49.484;8.556;2022-10-16T04:25:27;16.60;99.90
18898;DHT22;9581;49.484;8.556;2022-10-16T04:27:54;16.60;99.90
18898;DHT22;9581;49.484;8.556;2022-10-16T04:30:22;16.60;99.90
18898;DHT22;9581;49.484;8.556;2022-10-16T04:32:49;16.60;99.90
18898;DHT22;9581;49.484;8.556;2022-10-16T04:35:16;16.60;99.90
18898;DHT22;9581;49.484;8.556;2022-10-16T04:37:43;16.60;99.90
18898;DHT22;9581;49.484;8.556;2022-10-16T04:40:10;16.60;99.90
18898;DHT22;9581;49.484;8.556;2022-10-16T04:42:37;16.60;99.90
18898;DHT22;9581;49.484;8.556;2022-10-16T04:45:05;16.60;99.90
18898;DHT22;9581;49.484;8.556;2022-10-16T04:47:33;16.50;99.90
18898;DHT22;9581;49.484;8.556;2022-10-16T04:50:00;16.50;99.90
18898;DHT22;9581;49.484;8.556;2022-10-16T04:52:28;16.50;99.90
18898;DHT22;9581;49.484;8.556;2022-10-16T04:54:56;16.50;99.90
18898;DHT22;9581;49.484;8.556;2022-10-16T04:57:26;16.50;99.90
18898;DHT22;9581;49.484;8.556;2022-10-16T04:59:53;16.50;99.90
18898;DHT22;9581;49.484;8.556;2022-10-16T05:02:20;16.50;99.90
18898;DHT22;9581;49.484;8.556;2022-10-16T05:04:48;16.40;99.90
18898;DHT22;9581;49.484;8.556;2022-10-16T05:07:15;16.40;99.90
18898;DHT22;9581;49.484;8.556;2022-10-16T05:09:42;16.40;99.90
18898;DHT22;9581;49.484;8.556;2022-10-16T05:12:08;16.30;99.90
18898;DHT22;9581;49.484;8.556;2022-10-16T05:14:35;16.40;99.90
18898;DHT22;9581;49.484;8.556;2022-10-16T05:17:02;16.40;99.90
18898;DHT22;9581;49.484;8.556;2022-10-16T05:19:29;16.40;99.90
18898;DHT22;9581;49.484;8.556;2022-10-16T05:21:57;16.40;99.90
18898;DHT22;9581;49.484;8.556;2022-10-16T05:24:23;16.40;99.90
18898;DHT22;9581;49.484;8.556;2022-10-16T05:26:50;16.40;99.90
18898;DHT22;9581;49.484;8.556;2022-10-16T05:29:17;16.40;99.90
18898;DHT22;9581;49.484;8.556;2022-10-16T05:31:44;16.50;99.90
18898;DHT22;9581;49.484;8.556;2022-10-16T05:34:11;16.50;99.90
18898;DHT22;9581;49.484;8.556;2022-10-16T05:36:38;16.50;99.90
18898;DHT22;9581;49.484;8.556;2022-10-16T05:39:06;16.50;99.90
18898;DHT22;9581;49.484;8.556;2022-10-16T05:41:32;16.50;99.90
18898;DHT22;9581;49.484;8.556;2022-10-16T05:43:59;16.50;99.90
18898;DHT22;9581;49.484;8.556;2022-10-16T05:46:26;16.50;99.90
18898;DHT22;9581;49.484;8.556;2022-10-16T05:48:53;16.50;99.90
18898;DHT22;9581;49.484;8.556;2022-10-16T05:51:19;16.60;99.90
18898;DHT22;9581;49.484;8.556;2022-10-16T05:53:46;16.50;99.90
18898;DHT22;9581;49.484;8.556;2022-10-16T05:56:14;16.50;99.90
18898;DHT22;9581;49.484;8.556;2022-10-16T05:58:42;16.50;99.90
18898;DHT22;9581;49.484;8.556;2022-10-16T06:01:12;16.50;99.90
18898;DHT22;9581;49.484;8.556;2022-10-16T06:03:39;16.60;99.90
18898;DHT22;9581;49.484;8.556;2022-10-16T06:06:09;16.60;99.90
18898;DHT22;9581;49.484;8.556;2022-10-16T06:08:36;16.70;99.90
18898;DHT22;9581;49.484;8.556;2022-10-16T06:11:05;16.70;99.90
18898;DHT22;9581;49.484;8.556;2022-10-16T06:13:34;16.70;99.90
18898;DHT22;9581;49.484;8.556;2022-10-16T06:16:01;16.70;99.90
18898;DHT22;9581;49.484;8.556;2022-10-16T06:18:28;16.60;99.90
18898;DHT22;9581;49.484;8.556;2022-10-16T06:20:56;16.70;99.90
18898;DHT22;9581;49.484;8.556;2022-10-16T06:23:23;16.70;99.90
18898;DHT22;9581;49.484;8.556;2022-10-16T06:25:50;16.70;99.90
18898;DHT22;9581;49.484;8.556;2022-10-16T06:28:17;16.70;99.90
18898;DHT22;9581;49.484;8.556;2022-10-16T06:30:45;16.70;99.90
18898;DHT22;9581;49.484;8.556;2022-10-16T06:33:12;16.70;99.90
18898;DHT22;9581;49.484;8.556;2022-10-16T06:35:39;16.70;99.90
18898;DHT22;9581;49.484;8.556;2022-10-16T06:38:06;16.70;99.90
18898;DHT22;9581;49.484;8.556;2022-10-16T06:40:33;16.60;99.90
18898;DHT22;9581;49.484;8.556;2022-10-16T06:43:00;16.60;99.90
18898;DHT22;9581;49.484;8.556;2022-10-16T06:45:27;16.60;99.90
18898;DHT22;9581;49.484;8.556;2022-10-16T06:47:55;16.60;99.90
18898;DHT22;9581;49.484;8.556;2022-10-16T06:50:21;16.70;99.90
18898;DHT22;9581;49.484;8.556;2022-10-16T06:52:49;16.60;99.90
18898;DHT22;9581;49.484;8.556;2022-10-16T06:55:16;16.60;99.90
18898;DHT22;9581;49.484;8.556;2022-10-16T06:57:43;16.70;99.90
18898;DHT22;9581;49.484;8.556;2022-10-16T07:00:10;16.70;99.90
18898;DHT22;9581;49.484;8.556;2022-10-16T07:02:37;16.60;99.90
18898;DHT22;9581;49.484;8.556;2022-10-16T07:05:06;16.70;99.90
18898;DHT22;9581;49.484;8.556;2022-10-16T07:07:33;16.70;99.90
18898;DHT22;9581;49.484;8.556;2022-10-16T07:09:59;16.70;99.90
18898;DHT22;9581;49.484;8.556;2022-10-16T07:12:26;16.80;99.90
18898;DHT22;9581;49.484;8.556;2022-10-16T07:14:53;16.90;99.90
18898;DHT22;9581;49.484;8.556;2022-10-16T07:17:21;16.90;99.90
18898;DHT22;9581;49.484;8.556;2022-10-16T07:19:48;16.90;99.90
18898;DHT22;9581;49.484;8.556;2022-10-16T07:22:16;16.90;99.90
18898;DHT22;9581;49.484;8.556;2022-10-16T07:24:43;17.00;99.90
18898;DHT22;9581;49.484;8.556;2022-10-16T07:27:10;17.10;99.90
18898;DHT22;9581;49.484;8.556;2022-10-16T07:29:36;17.10;99.90
18898;DHT22;9581;49.484;8.556;2022-10-16T07:32:03;17.10;99.90
18898;DHT22;9581;49.484;8.556;2022-10-16T07:34:30;17.10;99.90
18898;DHT22;9581;49.484;8.556;2022-10-16T07:36:57;17.10;99.90
18898;DHT22;9581;49.484;8.556;2022-10-16T07:39:25;17.10;99.90
18898;DHT22;9581;49.484;8.556;2022-10-16T07:41:52;17.00;99.90
18898;DHT22;9581;49.484;8.556;2022-10-16T07:44:19;17.00;99.90
18898;DHT22;9581;49.484;8.556;2022-10-16T07:46:46;17.10;99.90
18898;DHT22;9581;49.484;8.556;2022-10-16T07:49:13;17.10;99.90
18898;DHT22;9581;49.484;8.556;2022-10-16T07:51:39;17.10;99.90
18898;DHT22;9581;49.484;8.556;2022-10-16T07:54:08;17.20;99.90
18898;DHT22;9581;49.484;8.556;2022-10-16T07:56:36;17.30;99.90
18898;DHT22;9581;49.484;8.556;2022-10-16T07:59:03;17.40;99.90
18898;DHT22;9581;49.484;8.556;2022-10-16T08:01:30;17.40;99.90
18898;DHT22;9581;49.484;8.556;2022-10-16T08:03:56;17.40;99.90
18898;DHT22;9581;49.484;8.556;2022-10-16T08:06:23;17.40;99.90
18898;DHT22;9581;49.484;8.556;2022-10-16T08:08:50;17.40;99.90
18898;DHT22;9581;49.484;8.556;2022-10-16T08:11:17;17.40;99.90
18898;DHT22;9581;49.484;8.556;2022-10-16T08:13:45;17.40;99.90
18898;DHT22;9581;49.484;8.556;2022-10-16T08:16:12;17.40;99.90
18898;DHT22;9581;49.484;8.556;2022-10-16T08:18:39;17.40;99.90
18898;DHT22;9581;49.484;8.556;2022-10-16T08:21:11;17.50;99.90
18898;DHT22;9581;49.484;8.556;2022-10-16T08:23:38;17.50;99.90
18898;DHT22;9581;49.484;8.556;2022-10-16T08:26:07;17.50;99.90
18898;DHT22;9581;49.484;8.556;2022-10-16T08:28:34;17.50;99.90
18898;DHT22;9581;49.484;8.556;2022-10-16T08:31:10;17.50;99.90
18898;DHT22;9581;49.484;8.556;2022-10-16T08:33:38;17.50;99.90
18898;DHT22;9581;49.484;8.556;2022-10-16T08:36:06;17.50;99.90
18898;DHT22;9581;49.484;8.556;2022-10-16T08:38:33;17.50;99.90
18898;DHT22;9581;49.484;8.556;2022-10-16T08:44:00;17.50;99.90
18898;DHT22;9581;49.484;8.556;2022-10-16T08:46:43;17.50;99.90
18898;DHT22;9581;49.484;8.556;2022-10-16T08:49:13;17.70;99.90
18898;DHT22;9581;49.484;8.556;2022-10-16T08:51:40;17.80;99.90
18898;DHT22;9581;49.484;8.556;2022-10-16T08:54:21;17.60;99.90
18898;DHT22;9581;49.484;8.556;2022-10-16T08:56:49;17.70;99.90
18898;DHT22;9581;49.484;8.556;2022-10-16T08:59:16;17.60;99.90
18898;DHT22;9581;49.484;8.556;2022-10-16T09:01:47;17.40;99.90
18898;DHT22;9581;49.484;8.556;2022-10-16T09:04:41;17.20;99.90
18898;DHT22;9581;49.484;8.556;2022-10-16T09:07:16;17.20;99.90
18898;DHT22;9581;49.484;8.556;2022-10-16T09:09:58;17.10;99.90
18898;DHT22;9581;49.484;8.556;2022-10-16T09:12:32;17.20;99.90
18898;DHT22;9581;49.484;8.556;2022-10-16T09:15:12;17.50;99.90
18898;DHT22;9581;49.484;8.556;2022-10-16T09:17:52;17.80;99.90
18898;DHT22;9581;49.484;8.556;2022-10-16T09:20:28;18.00;99.90
18898;DHT22;9581;49.484;8.556;2022-10-16T09:23:08;18.20;99.90
18898;DHT22;9581;49.484;8.556;2022-10-16T09:25:38;18.60;99.90
18898;DHT22;9581;49.484;8.556;2022-10-16T09:28:07;18.60;99.90
18898;DHT22;9581;49.484;8.556;2022-10-16T09:30:34;18.90;99.90
18898;DHT22;9581;49.484;8.556;2022-10-16T09:33:03;18.80;99.90
18898;DHT22;9581;49.484;8.556;2022-10-16T09:35:33;18.90;99.90
18898;DHT22;9581;49.484;8.556;2022-10-16T09:38:01;19.10;99.90
18898;DHT22;9581;49.484;8.556;2022-10-16T09:40:30;19.00;99.90
18898;DHT22;9581;49.484;8.556;2022-10-16T09:43:03;19.30;99.90
18898;DHT22;9581;49.484;8.556;2022-10-16T09:45:32;19.50;99.90
18898;DHT22;9581;49.484;8.556;2022-10-16T09:48:10;19.60;99.90
18898;DHT22;9581;49.484;8.556;2022-10-16T09:50:37;19.50;99.90
18898;DHT22;9581;49.484;8.556;2022-10-16T09:53:06;19.50;99.90
18898;DHT22;9581;49.484;8.556;2022-10-16T09:55:35;19.50;99.90
18898;DHT22;9581;49.484;8.556;2022-10-16T09:58:01;19.30;99.90
18898;DHT22;9581;49.484;8.556;2022-10-16T10:00:28;19.30;99.90
18898;DHT22;9581;49.484;8.556;2022-10-16T10:02:55;19.50;99.90
18898;DHT22;9581;49.484;8.556;2022-10-16T10:05:26;19.50;99.90
18898;DHT22;9581;49.484;8.556;2022-10-16T10:07:58;19.30;99.90
18898;DHT22;9581;49.484;8.556;2022-10-16T10:10:26;19.30;99.90
18898;DHT22;9581;49.484;8.556;2022-10-16T10:12:54;19.30;99.90
18898;DHT22;9581;49.484;8.556;2022-10-16T10:15:23;19.30;99.90
18898;DHT22;9581;49.484;8.556;2022-10-16T10:17:51;19.20;99.90
18898;DHT22;9581;49.484;8.556;2022-10-16T10:20:26;19.30;99.90
18898;DHT22;9581;49.484;8.556;2022-10-16T10:22:54;19.30;99.90
18898;DHT22;9581;49.484;8.556;2022-10-16T10:25:38;19.40;99.90
18898;DHT22;9581;49.484;8.556;2022-10-16T10:28:21;19.40;99.90
18898;DHT22;9581;49.484;8.556;2022-10-16T10:30:57;19.50;99.90
18898;DHT22;9581;49.484;8.556;2022-10-16T10:33:31;19.60;99.90
18898;DHT22;9581;49.484;8.556;2022-10-16T10:36:12;19.60;99.90
18898;DHT22;9581;49.484;8.556;2022-10-16T10:38:47;19.70;99.90
18898;DHT22;9581;49.484;8.556;2022-10-16T10:44:37;20.00;99.90
18898;DHT22;9581;49.484;8.556;2022-10-16T10:47:18;20.00;99.90
18898;DHT22;9581;49.484;8.556;2022-10-16T10:49:57;20.20;99.90
18898;DHT22;9581;49.484;8.556;2022-10-16T10:52:38;20.20;99.90
18898;DHT22;9581;49.484;8.556;2022-10-16T10:55:15;20.50;99.90
18898;DHT22;9581;49.484;8.556;2022-10-16T10:57:54;20.90;99.90
18898;DHT22;9581;49.484;8.556;2022-10-16T11:00:30;21.20;99.90
18898;DHT22;9581;49.484;8.556;2022-10-16T11:03:06;21.30;99.90
18898;DHT22;9581;49.484;8.556;2022-10-16T11:05:45;21.50;99.90
18898;DHT22;9581;49.484;8.556;2022-10-16T11:08:18;21.50;99.90
18898;DHT22;9581;49.484;8.556;2022-10-16T11:10:51;21.50;99.90
18898;DHT22;9581;49.484;8.556;2022-10-16T11:13:26;21.60;99.90
18898;DHT22;9581;49.484;8.556;2022-10-16T11:15:58;21.60;99.90
18898;DHT22;9581;49.484;8.556;2022-10-16T11:18:32;21.70;99.90
18898;DHT22;9581;49.484;8.556;2022-10-16T11:21:04;21.80;99.90
18898;DHT22;9581;49.484;8.556;2022-10-16T11:23:40;21.80;99.90
18898;DHT22;9581;49.484;8.556;2022-10-16T11:26:13;21.70;99.90
18898;DHT22;9581;49.484;8.556;2022-10-16T11:28:45;21.70;99.90
18898;DHT22;9581;49.484;8.556;2022-10-16T11:31:16;21.90;99.90
18898;DHT22;9581;49.484;8.556;2022-10-16T11:33:47;22.00;99.90
18898;DHT22;9581;49.484;8.556;2022-10-16T11:36:19;22.00;99.90
18898;DHT22;9581;49.484;8.556;2022-10-16T11:38:54;21.90;99.90
18898;DHT22;9581;49.484;8.556;2022-10-16T11:41:27;21.90;99.90
18898;DHT22;9581;49.484;8.556;2022-10-16T11:44:09;22.00;99.90
18898;DHT22;9581;49.484;8.556;2022-10-16T11:46:44;21.70;99.90
18898;DHT22;9581;49.484;8.556;2022-10-16T11:49:15;21.90;99.90
18898;DHT22;9581;49.484;8.556;2022-10-16T11:51:47;21.70;99.90
18898;DHT22;9581;49.484;8.556;2022-10-16T11:54:22;21.60;99.90
18898;DHT22;9581;49.484;8.556;2022-10-16T11:56:55;21.40;99.90
18898;DHT22;9581;49.484;8.556;2022-10-16T11:59:29;21.50;99.90
18898;DHT22;9581;49.484;8.556;2022-10-16T12:02:25;21.40;99.90
18898;DHT22;9581;49.484;8.556;2022-10-16T12:05:02;21.40;99.90
18898;DHT22;9581;49.484;8.556;2022-10-16T12:07:35;21.50;99.90
18898;DHT22;9581;49.484;8.556;2022-10-16T12:10:19;21.70;99.90
18898;DHT22;9581;49.484;8.556;2022-10-16T12:12:46;21.70;99.90
18898;DHT22;9581;49.484;8.556;2022-10-16T12:15:23;21.50;99.90
18898;DHT22;9581;49.484;8.556;2022-10-16T12:17:50;21.30;99.90
18898;DHT22;9581;49.484;8.556;2022-10-16T12:20:27;21.10;99.90
18898;DHT22;9581;49.484;8.556;2022-10-16T12:22:57;21.10;99.90
18898;DHT22;9581;49.484;8.556;2022-10-16T12:25:29;21.00;99.90
18898;DHT22;9581;49.484;8.556;2022-10-16T12:28:01;21.10;99.90
18898;DHT22;9581;49.484;8.556;2022-10-16T12:30:31;21.00;99.90
18898;DHT22;9581;49.484;8.556;2022-10-16T12:33:00;21.10;99.90
18898;DHT22;9581;49.484;8.556;2022-10-16T12:35:31;21.10;99.90
18898;DHT22;9581;49.484;8.556;2022-10-16T12:38:07;21.10;99.90
18898;DHT22;9581;49.484;8.556;2022-10-16T12:40:37;21.10;99.90
18898;DHT22;9581;49.484;8.556;2022-10-16T12:43:27;21.10;99.90
18898;DHT22;9581;49.484;8.556;2022-10-16T12:46:00;21.00;99.90
18898;DHT22;9581;49.484;8.556;2022-10-16T12:48:27;21.00;99.90
18898;DHT22;9581;49.484;8.556;2022-10-16T12:50:54;21.10;99.90
18898;DHT22;9581;49.484;8.556;2022-10-16T12:53:22;21.20;99.90
18898;DHT22;9581;49.484;8.556;2022-10-16T12:56:00;21.20;99.90
18898;DHT22;9581;49.484;8.556;2022-10-16T12:58:42;21.20;99.90
18898;DHT22;9581;49.484;8.556;2022-10-16T13:01:22;21.30;99.90
18898;DHT22;9581;49.484;8.556;2022-10-16T13:07:03;21.40;99.90
18898;DHT22;9581;49.484;8.556;2022-10-16T13:09:45;21.40;99.90
18898;DHT22;9581;49.484;8.556;2022-10-16T13:12:25;21.40;99.90
18898;DHT22;9581;49.484;8.556;2022-10-16T13:15:12;21.40;99.90
18898;DHT22;9581;49.484;8.556;2022-10-16T13:17:52;21.20;99.90
18898;DHT22;9581;49.484;8.556;2022-10-16T13:20:24;21.10;99.90
18898;DHT22;9581;49.484;8.556;2022-10-16T13:23:02;20.90;99.90
18898;DHT22;9581;49.484;8.556;2022-10-16T13:25:39;20.80;99.90
18898;DHT22;9581;49.484;8.556;2022-10-16T13:28:11;20.80;99.90
18898;DHT22;9581;49.484;8.556;2022-10-16T13:30:40;20.80;99.90
18898;DHT22;9581;49.484;8.556;2022-10-16T13:33:13;20.70;99.90
18898;DHT22;9581;49.484;8.556;2022-10-16T13:35:48;20.60;99.90
18898;DHT22;9581;49.484;8.556;2022-10-16T13:38:18;20.60;99.90
18898;DHT22;9581;49.484;8.556;2022-10-16T13:40:51;20.60;99.90
18898;DHT22;9581;49.484;8.556;2022-10-16T13:43:20;20.50;99.90
18898;DHT22;9581;49.484;8.556;2022-10-16T13:46:00;20.50;99.90
18898;DHT22;9581;49.484;8.556;2022-10-16T13:48:28;20.50;99.90
18898;DHT22;9581;49.484;8.556;2022-10-16T13:51:03;20.50;99.90
18898;DHT22;9581;49.484;8.556;2022-10-16T13:53:31;20.50;99.90
18898;DHT22;9581;49.484;8.556;2022-10-16T13:55:58;20.60;99.90
18898;DHT22;9581;49.484;8.556;2022-10-16T13:58:28;20.60;99.90
18898;DHT22;9581;49.484;8.556;2022-10-16T14:00:56;20.50;99.90
18898;DHT22;9581;49.484;8.556;2022-10-16T14:03:25;20.50;99.90
18898;DHT22;9581;49.484;8.556;2022-10-16T14:05:53;20.60;99.90
18898;DHT22;9581;49.484;8.556;2022-10-16T14:08:22;20.50;99.90
18898;DHT22;9581;49.484;8.556;2022-10-16T14:10:50;20.50;99.90
18898;DHT22;9581;49.484;8.556;2022-10-16T14:13:19;20.50;99.90
18898;DHT22;9581;49.484;8.556;2022-10-16T14:15:49;20.50;99.90
18898;DHT22;9581;49.484;8.556;2022-10-16T14:18:20;20.40;99.90
18898;DHT22;9581;49.484;8.556;2022-10-16T14:20:48;20.40;99.90
18898;DHT22;9581;49.484;8.556;2022-10-16T14:23:23;20.30;99.90
18898;DHT22;9581;49.484;8.556;2022-10-16T14:26:04;20.20;99.90
18898;DHT22;9581;49.484;8.556;2022-10-16T14:28:32;20.20;99.90
18898;DHT22;9581;49.484;8.556;2022-10-16T14:31:01;20.20;99.90
18898;DHT22;9581;49.484;8.556;2022-10-16T14:33:32;20.20;99.90
18898;DHT22;9581;49.484;8.556;2022-10-16T14:36:02;20.20;99.90
18898;DHT22;9581;49.484;8.556;2022-10-16T14:38:31;20.10;99.90
18898;DHT22;9581;49.484;8.556;2022-10-16T14:40:59;20.10;99.90
18898;DHT22;9581;49.484;8.556;2022-10-16T14:43:31;20.00;99.90
18898;DHT22;9581;49.484;8.556;2022-10-16T14:46:02;20.00;99.90
18898;DHT22;9581;49.484;8.556;2022-10-16T14:48:30;20.00;99.90
18898;DHT22;9581;49.484;8.556;2022-10-16T14:50:57;20.00;99.90
18898;DHT22;9581;49.484;8.556;2022-10-16T14:53:23;20.00;99.90
18898;DHT22;9581;49.484;8.556;2022-10-16T14:55:50;20.00;99.90
18898;DHT22;9581;49.484;8.556;2022-10-16T14:58:19;20.00;99.90
18898;DHT22;9581;49.484;8.556;2022-10-16T15:00:47;20.10;99.90
18898;DHT22;9581;49.484;8.556;2022-10-16T15:03:16;20.10;99.90
18898;DHT22;9581;49.484;8.556;2022-10-16T15:05:43;20.10;99.90
18898;DHT22;9581;49.484;8.556;2022-10-16T15:08:09;20.20;99.90
18898;DHT22;9581;49.484;8.556;2022-10-16T15:10:40;20.30;99.90
18898;DHT22;9581;49.484;8.556;2022-10-16T15:13:11;20.40;99.90
18898;DHT22;9581;49.484;8.556;2022-10-16T15:15:47;20.60;99.90
18898;DHT22;9581;49.484;8.556;2022-10-16T15:18:16;20.80;99.90
18898;DHT22;9581;49.484;8.556;2022-10-16T15:20:47;20.90;99.90
18898;DHT22;9581;49.484;8.556;2022-10-16T15:23:16;20.80;99.90
18898;DHT22;9581;49.484;8.556;2022-10-16T15:25:45;20.80;99.90
18898;DHT22;9581;49.484;8.556;2022-10-16T15:28:13;20.80;99.90
18898;DHT22;9581;49.484;8.556;2022-10-16T15:30:41;20.70;99.90
18898;DHT22;9581;49.484;8.556;2022-10-16T15:33:13;20.60;99.90
18898;DHT22;9581;49.484;8.556;2022-10-16T15:35:42;20.60;99.90
18898;DHT22;9581;49.484;8.556;2022-10-16T15:38:11;20.50;99.90
18898;DHT22;9581;49.484;8.556;2022-10-16T15:40:39;20.50;99.90
18898;DHT22;9581;49.484;8.556;2022-10-16T15:43:06;20.40;99.90
18898;DHT22;9581;49.484;8.556;2022-10-16T15:45:33;20.40;99.90
18898;DHT22;9581;49.484;8.556;2022-10-16T15:48:00;20.40;99.90
18898;DHT22;9581;49.484;8.556;2022-10-16T15:50:27;20.40;99.90
18898;DHT22;9581;49.484;8.556;2022-10-16T15:52:55;20.40;99.90
18898;DHT22;9581;49.484;8.556;2022-10-16T15:55:22;20.40;99.90
18898;DHT22;9581;49.484;8.556;2022-10-16T15:57:49;20.40;99.90
18898;DHT22;9581;49.484;8.556;2022-10-16T16:00:17;20.30;99.90
18898;DHT22;9581;49.484;8.556;2022-10-16T16:02:50;20.10;99.90
18898;DHT22;9581;49.484;8.556;2022-10-16T16:05:17;19.90;99.90
18898;DHT22;9581;49.484;8.556;2022-10-16T16:07:44;19.90;99.90
18898;DHT22;9581;49.484;8.556;2022-10-16T16:10:12;19.90;99.90
18898;DHT22;9581;49.484;8.556;2022-10-16T16:12:39;19.80;99.90